Time;durP1;ratioP1;P1;durP2;ratioP2;P2;SDS_P1;SDS_P2;PMS_P1;PMS_P2;Temp;Humidity;BMP_temperature;BMP_pressure;BME280_temperature;BME280_humidity;BME280_pressure;Samples;Min_cycle;Max_cycle;Signal;HPM_P1;HPM_P2
2022/11/26 00:01:22;;;;;;;;;39.25;36.25;;;;;10.33;71.83;102387.50;4990687;28;45569;-68
2022/11/26 00:03:55;;;;;;;;;47.75;33.50;;;;;10.31;72.30;102391.78;4992321;28;45776;-64
2022/11/26 00:06:32;;;;;;;;;42.50;29.50;;;;;10.30;72.09;102394.38;4991120;28;46378;-69
2022/11/26 00:08:59;;;;;;;;;41.50;30.75;;;;;10.36;71.82;102408.53;4991543;28;45422;-65
2022/11/26 00:11:24;;;;;;;;;37.00;28.75;;;;;10.29;71.96;102384.75;4991279;28;45490;-66
2022/11/26 00:13:50;;;;;;;;;34.00;25.75;;;;;10.38;72.23;102395.47;4992182;28;45351;-67
2022/11/26 00:16:16;;;;;;;;;28.50;26.25;;;;;10.33;71.77;102392.72;4995188;28;46471;-65
2022/11/26 00:18:42;;;;;;;;;30.25;24.50;;;;;10.38;72.30;102408.59;4991423;28;45550;-73
2022/11/26 00:21:22;;;;;;;;;28.75;21.50;;;;;10.41;71.72;102413.91;4991747;28;45447;-69
2022/11/26 00:23:48;;;;;;;;;25.25;20.25;;;;;10.40;71.85;102415.63;4990534;28;45423;-62
2022/11/26 00:26:17;;;;;;;;;28.00;25.50;;;;;10.43;71.77;102414.84;4990920;28;46565;-63
2022/11/26 00:28:53;;;;;;;;;25.50;23.00;;;;;10.40;71.83;102422.63;4990922;28;45543;-65
2022/11/26 00:31:19;;;;;;;;;25.25;21.50;;;;;10.28;71.84;102416.97;4991155;28;45866;-64
2022/11/26 00:33:44;;;;;;;;;28.00;25.00;;;;;10.22;71.62;102416.78;4992051;28;45416;-63
2022/11/26 00:36:21;;;;;;;;;27.75;20.25;;;;;10.22;72.11;102417.66;4992493;28;45547;-70
2022/11/26 00:38:57;;;;;;;;;24.25;22.25;;;;;10.23;71.94;102414.22;4991095;28;45539;-65
2022/11/26 00:41:26;;;;;;;;;23.00;22.75;;;;;10.27;72.10;102410.84;4990361;28;45399;-64
2022/11/26 00:43:52;;;;;;;;;22.00;19.75;;;;;10.31;71.72;102419.72;4990974;28;45570;-68
2022/11/26 00:46:21;;;;;;;;;29.75;25.00;;;;;10.25;71.69;102423.03;5075138;27;47002;-66
2022/11/26 00:48:47;;;;;;;;;28.75;24.75;;;;;10.23;71.64;102429.03;5005876;27;45659;-65
2022/11/26 00:51:17;;;;;;;;;32.25;23.50;;;;;10.23;72.09;102429.03;4990965;28;45766;-66
2022/11/26 00:53:44;;;;;;;;;22.25;20.25;;;;;10.13;72.18;102431.38;4994404;28;45747;-65
2022/11/26 00:56:18;;;;;;;;;20.50;20.50;;;;;10.11;72.40;102425.22;4995748;28;46439;-71
2022/11/26 00:58:46;;;;;;;;;20.25;16.75;;;;;10.12;72.25;102421.75;4994028;28;45499;-73
2022/11/26 01:01:17;;;;;;;;;26.00;20.50;;;;;10.04;72.32;102423.25;4993300;27;45375;-66
2022/11/26 01:03:43;;;;;;;;;30.00;23.75;;;;;10.03;72.66;102423.19;4985946;28;45270;-65
2022/11/26 01:06:27;;;;;;;;;31.25;25.75;;;;;10.10;72.16;102420.81;4983169;28;46214;-66
2022/11/26 01:08:53;;;;;;;;;35.50;29.75;;;;;10.09;72.14;102434.75;4989909;28;45960;-66
2022/11/26 01:11:21;;;;;;;;;45.50;34.00;;;;;10.07;72.19;102428.56;4990787;28;45500;-64
2022/11/26 01:13:48;;;;;;;;;42.50;36.25;;;;;10.03;72.40;102431.03;4992701;28;45358;-64
2022/11/26 01:16:20;;;;;;;;;41.75;33.75;;;;;10.07;72.20;102441.66;4994145;28;45701;-66
2022/11/26 01:18:48;;;;;;;;;44.25;35.75;;;;;10.01;71.82;102435.34;5075171;27;45556;-66
2022/11/26 01:21:14;;;;;;;;;46.75;37.00;;;;;9.95;72.10;102439.53;4990083;28;46053;-66
2022/11/26 01:23:40;;;;;;;;;52.25;39.25;;;;;9.77;72.50;102439.84;4995013;28;45464;-65
2022/11/26 01:26:09;;;;;;;;;52.25;42.25;;;;;9.64;72.80;102445.50;4992116;28;45327;-66
2022/11/26 01:28:35;;;;;;;;;61.75;45.50;;;;;9.45;73.22;102432.66;4989942;28;45467;-65
2022/11/26 01:31:00;;;;;;;;;55.75;43.25;;;;;9.28;73.36;102430.38;4990321;28;45610;-64
2022/11/26 01:33:26;;;;;;;;;56.25;43.75;;;;;9.16;73.85;102436.88;4990390;28;45497;-63
2022/11/26 01:35:51;;;;;;;;;53.25;41.00;;;;;9.13;73.67;102429.81;5075324;27;47789;-65
2022/11/26 01:38:17;;;;;;;;;53.50;41.75;;;;;9.08;74.07;102439.22;4990068;28;45451;-66
2022/11/26 01:41:29;;;;;;;;;53.25;39.75;;;;;9.05;73.94;102434.78;4989566;28;45530;-64
2022/11/26 01:43:56;;;;;;;;;45.25;37.50;;;;;9.07;73.94;102446.19;5003841;28;45896;-65
2022/11/26 01:46:22;;;;;;;;;53.75;42.25;;;;;8.95;74.48;102448.38;4994245;28;45442;-67
2022/11/26 01:48:49;;;;;;;;;50.50;39.50;;;;;8.84;74.61;102431.41;4992958;27;45525;-69
2022/11/26 01:51:21;;;;;;;;;49.00;39.50;;;;;8.75;74.78;102429.31;4991529;28;45643;-64
2022/11/26 01:53:52;;;;;;;;;50.00;41.25;;;;;8.66;75.24;102442.97;5006571;28;45404;-69
2022/11/26 01:56:42;;;;;;;;;46.75;39.25;;;;;8.57;75.44;102440.00;4975082;28;47816;-69
2022/11/26 01:59:17;;;;;;;;;49.00;34.50;;;;;8.54;75.17;102445.09;5010149;28;45552;-71
2022/11/26 02:01:42;;;;;;;;;47.75;37.75;;;;;8.53;75.23;102443.31;4994938;28;45501;-72
2022/11/26 02:04:11;;;;;;;;;51.50;39.00;;;;;8.48;75.54;102445.75;4993768;28;45335;-71
2022/11/26 02:06:36;;;;;;;;;47.50;37.25;;;;;8.48;75.56;102437.94;4996238;28;45524;-70
2022/11/26 02:09:06;;;;;;;;;48.50;35.75;;;;;8.55;75.16;102446.00;4997485;28;45487;-71
2022/11/26 02:11:32;;;;;;;;;51.50;38.00;;;;;8.56;75.25;102445.16;4995668;28;45441;-63
2022/11/26 02:14:01;;;;;;;;;44.50;35.50;;;;;8.49;75.31;102433.59;4993310;28;45422;-65
2022/11/26 02:16:44;;;;;;;;;44.75;35.50;;;;;8.57;75.03;102437.41;4995200;28;45750;-68
2022/11/26 02:19:31;;;;;;;;;53.50;37.50;;;;;8.53;75.24;102434.59;4992731;28;45604;-68
2022/11/26 02:22:20;;;;;;;;;44.25;37.00;;;;;8.51;75.13;102444.09;4992828;28;45474;-65
2022/11/26 02:24:51;;;;;;;;;47.75;37.50;;;;;8.52;75.18;102443.25;5007374;27;45656;-63
2022/11/26 02:27:35;;;;;;;;;49.50;37.25;;;;;8.50;75.17;102438.00;4992269;28;45407;-64
2022/11/26 02:30:10;;;;;;;;;48.75;39.25;;;;;8.47;75.47;102437.84;4992644;28;45589;-64
2022/11/26 02:32:48;;;;;;;;;45.50;39.00;;;;;8.38;75.44;102425.34;4994311;28;45467;-66
2022/11/26 02:35:38;;;;;;;;;55.25;39.00;;;;;8.35;75.41;102432.16;4996538;28;45273;-70
2022/11/26 02:38:14;;;;;;;;;56.75;44.75;;;;;8.25;75.72;102428.28;4995926;28;45402;-64
2022/11/26 02:40:39;;;;;;;;;54.25;41.50;;;;;8.15;76.22;102434.00;4992305;28;45491;-63
2022/11/26 02:43:05;;;;;;;;;52.25;41.00;;;;;8.16;76.20;102438.38;4992505;28;45419;-65
2022/11/26 02:45:36;;;;;;;;;59.75;41.75;;;;;8.08;76.33;102438.06;4992698;28;45465;-63
2022/11/26 02:48:04;;;;;;;;;55.75;43.25;;;;;8.05;76.14;102440.56;4992803;28;46774;-66
2022/11/26 02:50:35;;;;;;;;;54.25;43.25;;;;;7.95;76.37;102444.53;4992494;28;45346;-66
2022/11/26 02:53:03;;;;;;;;;48.25;38.25;;;;;7.91;76.27;102428.69;4992851;28;45771;-63
2022/11/26 02:55:33;;;;;;;;;59.00;43.50;;;;;8.03;76.20;102445.72;5007996;27;45434;-63
2022/11/26 02:57:59;;;;;;;;;46.50;37.25;;;;;8.01;75.77;102436.06;4977624;27;46302;-65
2022/11/26 03:00:25;;;;;;;;;53.50;41.00;;;;;8.05;75.91;102453.63;4992664;28;45517;-63
2022/11/26 03:02:50;;;;;;;;;55.25;40.50;;;;;7.97;75.99;102447.19;4996354;28;45574;-69
2022/11/26 03:05:17;;;;;;;;;77.00;59.67;;;;;7.98;75.85;102449.00;5010952;28;45939;-64
2022/11/26 03:07:47;;;;;;;;;82.67;59.33;;;;;7.89;76.23;102446.00;4991102;28;46805;-63
2022/11/26 03:10:12;;;;;;;;;79.33;64.00;;;;;7.84;76.78;102449.31;4992287;28;45463;-64
2022/11/26 03:12:38;;;;;;;;;55.25;45.00;;;;;7.81;76.57;102451.81;5007857;28;45379;-64
2022/11/26 03:15:05;;;;;;;;;53.25;40.75;;;;;7.85;76.92;102447.59;4991636;28;45935;-65
2022/11/26 03:17:30;;;;;;;;;56.25;40.50;;;;;7.83;76.72;102451.84;4992444;28;47054;-64
2022/11/26 03:19:56;;;;;;;;;55.50;42.50;;;;;7.77;76.78;102430.75;4994992;28;45570;-69
2022/11/26 03:22:21;;;;;;;;;53.25;39.50;;;;;7.80;76.87;102442.19;4992420;28;45676;-69
2022/11/26 03:24:47;;;;;;;;;48.50;39.75;;;;;7.77;77.14;102449.91;4992568;28;45376;-63
2022/11/26 03:27:12;;;;;;;;;56.25;40.25;;;;;7.76;77.27;102452.44;5076962;27;46003;-68
2022/11/26 03:29:38;;;;;;;;;45.75;37.75;;;;;7.76;77.46;102452.44;4992378;28;45525;-67
2022/11/26 03:32:05;;;;;;;;;53.50;41.75;;;;;7.64;77.64;102434.59;4993761;27;45630;-65
2022/11/26 03:34:30;;;;;;;;;50.50;35.50;;;;;7.70;77.76;102441.75;4992477;28;45609;-64
2022/11/26 03:36:56;;;;;;;;;48.00;37.00;;;;;7.69;77.34;102437.34;4991499;28;45721;-64
2022/11/26 03:39:21;;;;;;;;;42.00;34.75;;;;;7.67;77.49;102434.69;4992722;28;45526;-65
2022/11/26 03:41:47;;;;;;;;;46.25;37.25;;;;;7.71;77.46;102447.06;4992197;28;45247;-67
2022/11/26 03:44:13;;;;;;;;;49.25;37.75;;;;;7.76;77.33;102442.00;4995280;28;45543;-70
2022/11/26 03:46:39;;;;;;;;;48.75;35.25;;;;;7.71;77.17;102436.63;4992416;28;46602;-68
2022/11/26 03:49:04;;;;;;;;;52.00;36.75;;;;;7.67;77.43;102445.13;4990598;28;45608;-70
2022/11/26 03:51:30;;;;;;;;;50.00;39.50;;;;;7.73;77.25;102445.38;4991412;28;45434;-71
2022/11/26 03:53:55;;;;;;;;;54.25;42.50;;;;;7.82;77.16;102444.88;5078958;27;45604;-70
2022/11/26 03:56:21;;;;;;;;;46.75;33.75;;;;;7.93;76.76;102448.81;4993373;28;45411;-69
2022/11/26 03:58:47;;;;;;;;;51.00;37.75;;;;;7.92;76.83;102457.44;4992838;28;45473;-72
2022/11/26 04:01:13;;;;;;;;;48.00;38.00;;;;;7.91;76.83;102453.06;4992286;28;45501;-70
2022/11/26 04:03:39;;;;;;;;;45.50;38.00;;;;;7.81;76.93;102449.19;4991071;27;45861;-69
2022/11/26 04:06:06;;;;;;;;;40.25;34.50;;;;;7.85;77.26;102451.13;5075706;27;46741;-66
2022/11/26 04:08:31;;;;;;;;;46.75;35.50;;;;;7.77;77.20;102451.63;4992091;28;45351;-65
2022/11/26 04:10:57;;;;;;;;;41.50;35.00;;;;;7.68;77.49;102448.63;4994333;28;45354;-66
2022/11/26 04:13:23;;;;;;;;;50.75;43.75;;;;;7.68;77.90;102461.66;4993325;28;45293;-67
2022/11/26 04:15:51;;;;;;;;;50.75;39.75;;;;;7.60;77.93;102461.34;4988935;28;45505;-63
2022/11/26 04:18:17;;;;;;;;;50.00;37.50;;;;;7.52;78.21;102465.34;4990789;28;45694;-65
2022/11/26 04:20:42;;;;;;;;;48.75;38.75;;;;;7.54;78.13;102468.91;4992479;28;45372;-63
2022/11/26 04:23:08;;;;;;;;;49.25;36.75;;;;;7.49;77.82;102473.94;4994423;28;45572;-67
2022/11/26 04:25:33;;;;;;;;;48.50;38.00;;;;;7.48;78.03;102460.84;4992608;28;46260;-63
2022/11/26 04:27:59;;;;;;;;;46.50;36.75;;;;;7.41;78.33;102452.75;4991437;28;45398;-65
2022/11/26 04:30:25;;;;;;;;;53.50;38.25;;;;;7.45;77.85;102459.00;4991365;28;45451;-68
2022/11/26 04:32:50;;;;;;;;;51.50;38.00;;;;;7.44;78.26;102459.81;4991938;28;45372;-64
2022/11/26 04:35:16;;;;;;;;;40.00;35.50;;;;;7.41;78.15;102441.44;4991230;28;45455;-64
2022/11/26 04:37:41;;;;;;;;;45.00;36.75;;;;;7.51;77.85;102459.25;4990981;28;45627;-68
2022/11/26 04:40:08;;;;;;;;;45.00;38.75;;;;;7.34;77.15;102435.06;4994149;28;45503;-65
2022/11/26 04:42:34;;;;;;;;;52.25;41.00;;;;;7.43;78.12;102460.66;4995517;28;45551;-64
2022/11/26 04:44:59;;;;;;;;;27.50;22.50;;;;;7.36;78.60;102466.44;4990912;28;45549;-65
2022/11/26 04:47:25;;;;;;;;;44.75;35.75;;;;;7.16;79.17;102468.16;5005594;28;45421;-69
2022/11/26 04:49:51;;;;;;;;;40.50;33.25;;;;;7.10;79.07;102462.69;4991126;28;45378;-65
2022/11/26 04:52:16;;;;;;;;;42.25;37.00;;;;;7.20;79.04;102470.06;5005855;28;45724;-63
2022/11/26 04:54:42;;;;;;;;;41.50;35.00;;;;;7.20;78.84;102467.47;4993063;28;45486;-63
2022/11/26 04:57:07;;;;;;;;;48.25;35.00;;;;;7.13;78.51;102455.00;4994901;28;45333;-63
2022/11/26 04:59:33;;;;;;;;;39.75;32.50;;;;;7.19;78.67;102460.50;4994921;28;45569;-64
2022/11/26 05:01:58;;;;;;;;;43.25;37.00;;;;;7.27;78.49;102472.13;4990752;28;45641;-63
2022/11/26 05:04:26;;;;;;;;;40.00;36.00;;;;;7.33;77.97;102471.50;4989796;28;46297;-62
2022/11/26 05:06:51;;;;;;;;;37.00;33.25;;;;;7.34;77.62;102475.91;4994653;28;45466;-64
2022/11/26 05:09:17;;;;;;;;;41.75;35.75;;;;;7.31;77.99;102484.47;4994401;28;46040;-64
2022/11/26 05:11:42;;;;;;;;;43.00;33.50;;;;;7.31;78.19;102480.94;4991108;28;45892;-65
2022/11/26 05:14:08;;;;;;;;;36.25;32.25;;;;;7.37;77.72;102494.25;4990132;28;46297;-63
2022/11/26 05:16:33;;;;;;;;;39.75;34.00;;;;;7.39;77.76;102487.41;4992822;28;45640;-64
2022/11/26 05:18:59;;;;;;;;;44.00;37.50;;;;;7.32;77.25;102483.63;4994386;28;45282;-64
2022/11/26 05:21:25;;;;;;;;;42.25;34.75;;;;;7.30;77.65;102489.63;4994546;28;45426;-64
2022/11/26 05:23:50;;;;;;;;;43.25;33.00;;;;;7.27;77.88;102492.97;5009391;27;47385;-64
2022/11/26 05:26:16;;;;;;;;;44.00;35.25;;;;;7.16;77.96;102478.56;4994556;28;45397;-64
2022/11/26 05:28:41;;;;;;;;;39.25;33.25;;;;;7.20;77.90;102497.03;4992887;28;45789;-65
2022/11/26 05:31:07;;;;;;;;;40.75;35.25;;;;;7.21;77.88;102501.44;4992138;27;45428;-63
2022/11/26 05:33:33;;;;;;;;;45.75;40.75;;;;;7.13;78.22;102501.91;4992809;28;46416;-63
2022/11/26 05:35:59;;;;;;;;;37.50;34.50;;;;;7.14;78.32;102503.69;4993361;28;45788;-67
2022/11/26 05:38:25;;;;;;;;;44.25;34.75;;;;;7.09;77.92;102492.16;4993116;27;45386;-66
2022/11/26 05:40:50;;;;;;;;;49.75;37.50;;;;;7.15;77.83;102500.25;4995762;28;45446;-64
2022/11/26 05:43:16;;;;;;;;;43.75;37.50;;;;;7.09;78.10;102490.44;4993045;28;45774;-63
2022/11/26 05:45:42;;;;;;;;;45.75;36.25;;;;;7.08;77.93;102486.06;4991782;28;45718;-64
2022/11/26 05:48:07;;;;;;;;;45.75;37.25;;;;;7.01;77.46;102492.72;4995714;28;45352;-65
2022/11/26 05:50:33;;;;;;;;;50.25;41.75;;;;;6.90;78.28;102500.88;4996029;28;45567;-67
2022/11/26 05:52:59;;;;;;;;;47.75;40.75;;;;;6.85;78.44;102512.78;4994524;28;46131;-67
2022/11/26 05:55:24;;;;;;;;;56.00;39.75;;;;;6.78;78.71;102506.41;4993060;28;45497;-66
2022/11/26 05:57:50;;;;;;;;;43.00;38.75;;;;;6.85;77.97;102503.25;4993283;28;45611;-66
2022/11/26 06:00:16;;;;;;;;;46.00;39.00;;;;;6.89;78.21;102517.34;4992292;28;45626;-71
2022/11/26 06:02:41;;;;;;;;;50.00;40.00;;;;;6.87;78.36;102521.56;4990796;28;46848;-67
2022/11/26 06:05:08;;;;;;;;;46.50;36.75;;;;;6.88;78.69;102524.25;5007764;27;45558;-68
2022/11/26 06:07:34;;;;;;;;;34.50;32.00;;;;;6.96;78.01;102519.41;4993267;28;45334;-66
2022/11/26 06:09:59;;;;;;;;;51.25;39.75;;;;;6.88;78.29;102524.25;4993455;28;45470;-65
2022/11/26 06:12:25;;;;;;;;;47.25;38.25;;;;;6.79;78.53;102521.22;4992413;28;46589;-64
2022/11/26 06:14:50;;;;;;;;;45.75;37.25;;;;;6.87;78.22;102542.41;4991027;28;45454;-64
2022/11/26 06:17:16;;;;;;;;;37.50;33.25;;;;;6.89;78.08;102540.78;4992197;28;45324;-65
2022/11/26 06:19:41;;;;;;;;;45.25;39.00;;;;;6.94;78.15;102553.19;4994454;28;45399;-67
2022/11/26 06:22:07;;;;;;;;;47.25;36.50;;;;;6.93;77.98;102550.53;4996408;28;46210;-65
2022/11/26 06:24:33;;;;;;;;;47.25;39.75;;;;;6.99;77.83;102564.69;4992953;28;45343;-66
2022/11/26 06:26:58;;;;;;;;;44.75;34.50;;;;;7.03;77.33;102563.13;4992096;28;45379;-65
2022/11/26 06:29:24;;;;;;;;;35.50;32.00;;;;;6.95;77.27;102541.03;4995892;28;45497;-67
2022/11/26 06:31:49;;;;;;;;;33.00;28.00;;;;;7.08;77.55;102550.31;4992784;28;45655;-64
2022/11/26 06:34:15;;;;;;;;;44.50;34.25;;;;;7.12;76.93;102545.31;4991727;28;45704;-65
2022/11/26 06:36:41;;;;;;;;;40.50;33.50;;;;;7.11;77.54;102542.63;4991930;28;45541;-66
2022/11/26 06:39:09;;;;;;;;;45.75;37.50;;;;;7.07;77.22;102531.19;4992083;28;45431;-68
2022/11/26 06:41:35;;;;;;;;;38.25;37.00;;;;;7.02;77.85;102537.88;5007036;28;46316;-64
2022/11/26 06:44:00;;;;;;;;;39.75;32.25;;;;;6.98;77.70;102560.31;4994892;28;45498;-64
2022/11/26 06:46:26;;;;;;;;;41.00;34.75;;;;;6.89;78.27;102554.69;4996180;28;45704;-68
2022/11/26 06:48:52;;;;;;;;;44.75;35.50;;;;;6.82;78.55;102559.53;4992925;28;45503;-68
2022/11/26 06:51:21;;;;;;;;;37.50;31.75;;;;;6.77;78.31;102551.50;4990466;28;48152;-63
2022/11/26 06:53:48;;;;;;;;;50.00;40.50;;;;;6.70;77.86;102557.25;4992082;28;45351;-64
2022/11/26 06:56:15;;;;;;;;;42.75;34.75;;;;;6.53;78.64;102577.28;4988806;28;45558;-64
2022/11/26 06:58:41;;;;;;;;;39.75;33.75;;;;;6.39;78.41;102575.75;4991874;28;45409;-65
2022/11/26 07:01:14;;;;;;;;;50.75;39.75;;;;;6.40;78.89;102587.91;4996312;28;45324;-64
2022/11/26 07:03:39;;;;;;;;;54.00;37.00;;;;;6.40;79.13;102582.72;4993690;28;46702;-68
2022/11/26 07:06:18;;;;;;;;;40.50;36.00;;;;;6.41;79.04;102582.81;4991748;28;45585;-65
2022/11/26 07:08:44;;;;;;;;;41.00;36.75;;;;;6.52;79.07;102583.31;4991855;28;45463;-64
2022/11/26 07:11:10;;;;;;;;;35.25;30.75;;;;;6.61;78.38;102573.31;4995365;28;45988;-71
2022/11/26 07:13:36;;;;;;;;;45.25;35.75;;;;;6.52;78.79;102567.69;4994716;28;45550;-68
2022/11/26 07:16:03;;;;;;;;;38.75;32.50;;;;;6.51;78.71;102563.31;4994260;28;45527;-70
2022/11/26 07:18:28;;;;;;;;;43.75;36.50;;;;;6.65;78.32;102570.06;4990795;28;45448;-70
2022/11/26 07:20:54;;;;;;;;;33.25;31.50;;;;;6.61;78.29;102594.16;4991897;28;45428;-68
2022/11/26 07:23:19;;;;;;;;;37.25;29.25;;;;;6.51;79.18;102587.63;4992442;28;45519;-71
2022/11/26 07:25:45;;;;;;;;;44.25;33.75;;;;;6.50;79.16;102588.44;4992423;28;44780;-67
2022/11/26 07:28:11;;;;;;;;;39.75;33.00;;;;;6.53;79.13;102591.19;4995226;28;45301;-66
2022/11/26 07:30:36;;;;;;;;;40.25;36.00;;;;;6.62;78.77;102589.84;4995961;28;45491;-70
2022/11/26 07:33:02;;;;;;;;;36.50;31.75;;;;;6.61;78.98;102590.66;4993050;28;45778;-69
2022/11/26 07:35:28;;;;;;;;;39.50;34.50;;;;;6.60;78.63;102600.19;4991797;28;45355;-70
2022/11/26 07:37:53;;;;;;;;;49.00;35.25;;;;;6.56;79.11;102598.25;4995368;28;45454;-72
2022/11/26 07:40:19;;;;;;;;;39.00;35.00;;;;;6.59;78.68;102601.00;4994318;28;45575;-68
2022/11/26 07:42:45;;;;;;;;;40.25;32.00;;;;;6.52;79.29;102572.88;4978958;28;45409;-69
2022/11/26 07:45:10;;;;;;;;;31.25;29.50;;;;;6.59;78.50;102574.97;4991789;28;45393;-66
2022/11/26 07:47:36;;;;;;;;;39.00;32.25;;;;;6.55;78.62;102562.63;4992091;28;45894;-66
2022/11/26 07:50:03;;;;;;;;;39.75;33.00;;;;;6.66;79.09;102584.84;4991384;28;45451;-66
2022/11/26 07:52:29;;;;;;;;;38.25;34.00;;;;;6.64;78.54;102580.41;4993244;28;46325;-64
2022/11/26 07:54:54;;;;;;;;;28.50;27.75;;;;;6.65;78.39;102582.19;4990275;28;45360;-66
2022/11/26 07:57:21;;;;;;;;;35.25;29.00;;;;;6.63;78.39;102576.03;4992060;27;45533;-66
2022/11/26 07:59:47;;;;;;;;;39.00;33.50;;;;;6.66;78.21;102568.34;4994909;27;45591;-64
2022/11/26 08:02:13;;;;;;;;;32.25;30.50;;;;;6.63;78.03;102576.03;4995822;28;45568;-67
2022/11/26 08:04:39;;;;;;;;;34.50;31.75;;;;;6.46;78.83;102564.81;4992032;28;45321;-65
2022/11/26 08:07:05;;;;;;;;;23.75;20.25;;;;;6.38;78.63;102559.19;4992008;28;45354;-66
2022/11/26 08:09:30;;;;;;;;;39.00;33.25;;;;;6.41;78.50;102558.44;4993897;28;47619;-65
2022/11/26 08:11:56;;;;;;;;;34.25;31.50;;;;;6.40;78.13;102562.78;4995510;28;45519;-65
2022/11/26 08:14:22;;;;;;;;;37.75;32.00;;;;;6.42;78.24;102578.47;4991777;28;45841;-66
2022/11/26 08:16:47;;;;;;;;;36.75;33.00;;;;;6.43;78.95;102590.66;4991475;28;45463;-66
2022/11/26 08:19:13;;;;;;;;;37.00;31.50;;;;;6.57;78.06;102600.94;4994231;28;46497;-70
2022/11/26 08:21:39;;;;;;;;;33.50;29.00;;;;;6.67;78.44;102603.97;4994999;28;45454;-65
2022/11/26 08:24:06;;;;;;;;;38.75;31.25;;;;;6.66;77.88;102599.59;4990949;28;45281;-63
2022/11/26 08:26:33;;;;;;;;;40.25;34.50;;;;;6.66;77.98;102612.59;4991891;28;45380;-66
2022/11/26 08:29:00;;;;;;;;;41.00;33.00;;;;;6.61;78.31;102608.91;4989346;28;47676;-66
2022/11/26 08:31:26;;;;;;;;;43.25;35.00;;;;;6.46;78.65;102585.63;5074876;27;45794;-70
2022/11/26 08:33:55;;;;;;;;;36.00;31.00;;;;;6.67;78.42;102609.16;4989818;28;45497;-68
2022/11/26 08:37:30;;;;;;;;;36.00;28.00;;;;;6.74;78.55;102606.97;5161389;27;46057;-64
2022/11/26 08:39:56;;;;;;;;;35.25;28.75;;;;;6.72;79.03;102606.00;5110550;27;45874;-67
2022/11/26 08:42:22;;;;;;;;;30.00;24.00;;;;;6.59;79.22;102590.59;5114018;27;45439;-67
2022/11/26 08:44:49;;;;;;;;;52.25;37.00;;;;;6.58;79.49;102597.50;5112709;27;45644;-68
2022/11/26 08:47:15;;;;;;;;;38.50;33.25;;;;;6.54;79.79;102595.56;5110100;27;45453;-65
2022/11/26 08:49:41;;;;;;;;;43.25;33.00;;;;;6.47;80.71;102593.50;5111690;27;45539;-66
2022/11/26 08:52:06;;;;;;;;;42.75;37.00;;;;;6.37;81.14;102594.75;5114531;27;45526;-66
2022/11/26 08:54:32;;;;;;;;;44.00;37.50;;;;;6.33;81.88;102605.81;5106487;27;45657;-65
2022/11/26 08:56:58;;;;;;;;;41.25;35.00;;;;;6.33;81.67;102608.41;5108164;27;46209;-65
2022/11/26 08:59:24;;;;;;;;;38.50;34.50;;;;;6.34;82.07;102607.63;5114089;27;45703;-66
2022/11/26 09:01:49;;;;;;;;;47.00;36.00;;;;;6.36;82.36;102603.41;5113190;27;45813;-63
2022/11/26 09:04:15;;;;;;;;;42.50;36.25;;;;;6.41;82.24;102600.09;5110438;27;45373;-65
2022/11/26 09:06:41;;;;;;;;;43.25;37.00;;;;;6.47;82.34;102597.81;5108556;27;46740;-68
2022/11/26 09:09:13;;;;;;;;;37.50;29.75;;;;;6.58;82.13;102615.75;5108562;27;45432;-63
2022/11/26 09:11:43;;;;;;;;;48.00;37.50;;;;;6.74;81.65;102619.09;5108645;27;45454;-66
2022/11/26 09:14:09;;;;;;;;;45.00;36.25;;;;;6.79;81.28;102609.78;5109198;27;45538;-66
2022/11/26 09:16:35;;;;;;;;;44.75;34.00;;;;;6.76;81.41;102604.41;5111908;27;45355;-67
2022/11/26 09:19:03;;;;;;;;;47.25;35.75;;;;;6.70;82.03;102599.81;5098077;27;45498;-66
2022/11/26 09:21:31;;;;;;;;;43.50;36.00;;;;;6.82;82.35;102625.53;5109769;27;45486;-63
2022/11/26 09:23:56;;;;;;;;;45.50;34.25;;;;;6.84;82.16;102620.41;5110479;27;45387;-63
2022/11/26 09:26:24;;;;;;;;;46.00;38.00;;;;;6.83;82.13;102613.41;5109962;27;46004;-63
2022/11/26 09:28:50;;;;;;;;;43.50;35.00;;;;;6.80;82.72;102612.44;5108351;27;45452;-64
2022/11/26 09:31:16;;;;;;;;;45.50;35.50;;;;;6.82;82.37;102598.63;5109441;27;45653;-62
2022/11/26 09:33:42;;;;;;;;;44.50;36.25;;;;;6.77;82.92;102594.06;5111648;27;45431;-62
2022/11/26 09:36:11;;;;;;;;;55.50;40.00;;;;;6.84;83.22;102596.97;5112986;27;45519;-63
2022/11/26 09:38:36;;;;;;;;;43.00;36.50;;;;;6.80;83.67;102602.03;5129078;27;45695;-65
2022/11/26 09:41:12;;;;;;;;;41.75;34.00;;;;;6.86;83.25;102600.53;5112106;27;45613;-64
2022/11/26 09:44:00;;;;;;;;;37.00;28.75;;;;;6.99;83.02;102608.09;5109684;27;45708;-63
2022/11/26 09:46:53;;;;;;;;;47.50;36.50;;;;;7.04;82.31;102604.00;5107754;27;47222;-62
2022/11/26 09:49:19;;;;;;;;;48.25;37.00;;;;;7.10;82.88;102604.28;5095873;27;45380;-62
2022/11/26 09:51:50;;;;;;;;;42.75;34.00;;;;;7.13;82.64;102598.31;5095228;27;46016;-63
2022/11/26 09:54:20;;;;;;;;;50.00;38.50;;;;;7.29;82.51;102605.13;5094585;27;45511;-65
2022/11/26 09:57:12;;;;;;;;;48.25;36.75;;;;;7.44;82.53;102592.78;5085847;27;45530;-64
2022/11/26 09:59:39;;;;;;;;;45.25;32.50;;;;;7.65;81.75;102598.06;5056083;27;45532;-63
2022/11/26 10:02:11;;;;;;;;;45.75;34.00;;;;;7.71;81.68;102576.53;5096108;27;45427;-63
2022/11/26 10:04:39;;;;;;;;;43.25;32.00;;;;;7.73;80.79;102591.44;5100230;27;45419;-62
2022/11/26 10:07:08;;;;;;;;;41.00;35.50;;;;;7.81;81.22;102595.28;5100420;27;45332;-64
2022/11/26 10:09:51;;;;;;;;;39.50;33.75;;;;;7.85;80.47;102593.69;5101014;27;45491;-64
2022/11/26 10:12:49;;;;;;;;;41.25;33.75;;;;;7.78;81.35;102595.16;5092698;27;45392;-64
2022/11/26 10:15:23;;;;;;;;;48.25;34.00;;;;;7.79;81.44;102599.53;5098875;27;45476;-63
2022/11/26 10:18:08;;;;;;;;;45.75;34.50;;;;;7.81;81.50;102597.00;5088279;27;46118;-63
2022/11/26 10:20:33;;;;;;;;;53.00;36.00;;;;;7.86;81.52;102598.97;5086128;27;45673;-66
2022/11/26 10:23:06;;;;;;;;;42.00;36.00;;;;;7.90;81.73;102591.28;5096051;27;45677;-65
2022/11/26 10:26:19;;;;;;;;;46.50;34.75;;;;;7.89;81.95;102592.09;5096222;27;45519;-65
2022/11/26 10:28:46;;;;;;;;;50.50;33.25;;;;;7.98;81.51;102596.00;5072395;27;47213;-62
2022/11/26 10:31:24;;;;;;;;;46.00;33.50;;;;;7.98;81.59;102590.78;5096514;27;45353;-68
2022/11/26 10:33:56;;;;;;;;;51.25;36.50;;;;;8.02;81.37;102571.81;5095074;27;45458;-65
2022/11/26 10:36:32;;;;;;;;;43.25;33.50;;;;;8.18;82.11;102568.09;5112602;27;45613;-67
2022/11/26 10:38:58;;;;;;;;;37.50;28.50;;;;;8.17;81.06;102568.06;5096137;27;45683;-69
2022/11/26 10:41:28;;;;;;;;;44.00;33.75;;;;;8.21;81.12;102570.88;5094423;27;45533;-66
2022/11/26 10:43:54;;;;;;;;;42.75;33.00;;;;;8.03;81.66;102544.88;5096188;27;45300;-64
2022/11/26 10:46:32;;;;;;;;;47.00;33.25;;;;;8.07;81.68;102552.03;5096137;27;45432;-66
2022/11/26 10:49:21;;;;;;;;;43.00;33.75;;;;;8.06;81.85;102563.28;5095244;27;46106;-68
2022/11/26 10:51:49;;;;;;;;;41.75;31.75;;;;;7.97;81.83;102568.13;5099009;27;45785;-63
2022/11/26 10:54:29;;;;;;;;;48.00;36.50;;;;;7.91;82.67;102569.59;5099680;27;45243;-64
2022/11/26 10:57:00;;;;;;;;;47.00;34.25;;;;;7.79;83.21;102556.91;5116905;27;45493;-63
2022/11/26 10:59:35;;;;;;;;;42.75;34.00;;;;;7.77;83.41;102555.94;5099490;27;46428;-65
2022/11/26 11:02:04;;;;;;;;;48.50;35.50;;;;;7.89;83.62;102566.03;5095041;27;45444;-63
2022/11/26 11:04:37;;;;;;;;;44.75;30.00;;;;;7.76;83.40;102560.28;5095183;27;45447;-63
2022/11/26 11:07:02;;;;;;;;;39.50;34.00;;;;;7.80;84.01;102575.22;5099941;27;45482;-65
2022/11/26 11:09:35;;;;;;;;;32.75;31.00;;;;;7.84;83.54;102577.16;5097030;27;46057;-64
2022/11/26 11:12:06;;;;;;;;;36.00;32.00;;;;;7.86;83.74;102567.66;5095224;27;45368;-64
2022/11/26 11:14:32;;;;;;;;;47.50;37.50;;;;;7.91;83.68;102567.88;5095644;27;45442;-69
2022/11/26 11:16:57;;;;;;;;;33.50;32.75;;;;;7.82;83.10;102557.91;5090676;27;45827;-69
2022/11/26 11:19:25;;;;;;;;;43.00;33.50;;;;;7.88;83.71;102566.81;5085818;27;45494;-67
2022/11/26 11:21:51;;;;;;;;;43.75;34.25;;;;;7.90;83.69;102554.75;5095686;27;45487;-66
2022/11/26 11:24:22;;;;;;;;;40.50;32.50;;;;;7.98;83.30;102549.03;5098720;27;45415;-72